Time;durP1;ratioP1;P1;durP2;ratioP2;P2;SDS_P1;SDS_P2;PMS_P1;PMS_P2;Temp;Humidity;BMP_temperature;BMP_pressure;BME280_temperature;BME280_humidity;BME280_pressure;Samples;Min_cycle;Max_cycle;Signal;HPM_P1;HPM_P2
2023/10/04 00:00:19;;;;;;;14.55;2.20;;;12.90;99.90;;;;;;5064302;28;20497;-57
2023/10/04 00:02:46;;;;;;;9.30;1.60;;;13.00;99.90;;;;;;5063398;28;20041;-58
2023/10/04 00:05:15;;;;;;;7.53;1.48;;;13.00;99.90;;;;;;5067288;28;20044;-56
2023/10/04 00:07:51;;;;;;;7.07;1.65;;;13.10;99.90;;;;;;5065011;28;20032;-57
2023/10/04 00:10:19;;;;;;;6.25;1.60;;;13.10;99.90;;;;;;5061407;28;20445;-57
2023/10/04 00:12:46;;;;;;;5.22;1.38;;;13.00;99.90;;;;;;5060957;28;20041;-58
2023/10/04 00:15:13;;;;;;;8.73;2.17;;;13.10;99.90;;;;;;5064360;28;20029;-59
2023/10/04 00:17:43;;;;;;;7.00;1.83;;;13.10;99.90;;;;;;5060592;28;20029;-57
2023/10/04 00:20:13;;;;;;;11.02;1.63;;;13.10;99.90;;;;;;5063776;28;20479;-54
2023/10/04 00:22:40;;;;;;;6.43;1.27;;;13.10;99.90;;;;;;5060924;28;20090;-57
2023/10/04 00:25:16;;;;;;;9.55;2.22;;;13.10;99.90;;;;;;5062208;28;20040;-57
2023/10/04 00:27:43;;;;;;;3.25;1.33;;;13.00;99.90;;;;;;5065471;28;20044;-55
2023/10/04 00:30:12;;;;;;;9.65;1.85;;;13.00;99.90;;;;;;5064270;28;20430;-58
2023/10/04 00:32:38;;;;;;;7.55;1.42;;;13.00;99.90;;;;;;5057559;28;20041;-54
2023/10/04 00:35:19;;;;;;;15.93;1.65;;;13.00;99.90;;;;;;5053277;28;20037;-55
2023/10/04 00:37:51;;;;;;;8.90;1.55;;;12.90;99.90;;;;;;5062741;28;20120;-55
2023/10/04 00:40:22;;;;;;;8.55;1.67;;;12.90;99.90;;;;;;5056838;28;20036;-57
2023/10/04 00:42:51;;;;;;;9.82;1.52;;;12.90;99.90;;;;;;5062009;28;20393;-57
2023/10/04 00:45:19;;;;;;;3.88;0.95;;;12.90;99.90;;;;;;5062968;28;20036;-57
2023/10/04 00:47:53;;;;;;;4.70;1.02;;;12.80;99.90;;;;;;5064500;28;20479;-58
2023/10/04 00:50:25;;;;;;;6.45;2.15;;;12.80;99.90;;;;;;5064883;28;20114;-56
2023/10/04 00:53:03;;;;;;;4.90;1.33;;;12.80;99.90;;;;;;5064992;28;20099;-57
2023/10/04 00:55:31;;;;;;;9.23;1.00;;;12.80;99.90;;;;;;5061048;28;20087;-57
2023/10/04 00:57:59;;;;;;;8.95;1.25;;;12.80;99.90;;;;;;5064078;28;20040;-57
2023/10/04 01:00:26;;;;;;;6.03;1.20;;;12.80;99.90;;;;;;5058335;28;20072;-55
2023/10/04 01:02:52;;;;;;;8.15;1.42;;;12.80;99.90;;;;;;5063690;28;20056;-56
2023/10/04 01:05:22;;;;;;;6.95;1.38;;;12.80;99.90;;;;;;5060886;28;20421;-57
2023/10/04 01:07:49;;;;;;;6.75;0.95;;;12.80;99.90;;;;;;5063606;28;20037;-57
2023/10/04 01:10:20;;;;;;;4.45;0.90;;;12.80;99.90;;;;;;5062779;28;20082;-56
2023/10/04 01:12:47;;;;;;;9.00;0.98;;;12.80;99.90;;;;;;5066249;28;20399;-58
2023/10/04 01:15:36;;;;;;;5.63;0.93;;;12.70;99.90;;;;;;5066484;28;20494;-58
2023/10/04 01:18:07;;;;;;;5.25;1.20;;;12.70;99.90;;;;;;5065812;28;20102;-55
2023/10/04 01:20:33;;;;;;;4.63;0.80;;;12.70;99.90;;;;;;5066229;28;20033;-56
2023/10/04 01:23:06;;;;;;;;;;;12.70;99.90;;;;;;5066116;28;20045;-57
2023/10/04 01:25:38;;;;;;;5.63;1.08;;;12.70;99.90;;;;;;5068976;28;20413;-58
2023/10/04 01:28:11;;;;;;;5.75;1.02;;;12.70;99.90;;;;;;5064760;28;20037;-58
2023/10/04 01:30:41;;;;;;;9.73;1.30;;;12.70;99.90;;;;;;5067477;28;20089;-58
2023/10/04 01:33:16;;;;;;;8.73;1.13;;;12.70;99.90;;;;;;5070246;28;20024;-54
2023/10/04 01:35:46;;;;;;;8.25;1.30;;;12.70;99.90;;;;;;5069071;28;20086;-56
2023/10/04 01:38:13;;;;;;;3.97;1.23;;;12.70;99.90;;;;;;5060258;28;20029;-57
2023/10/04 01:40:39;;;;;;;4.72;1.80;;;12.70;99.90;;;;;;5065277;28;20077;-58
2023/10/04 01:43:15;;;;;;;4.18;1.23;;;12.70;99.90;;;;;;5068249;28;20064;-54
2023/10/04 01:45:57;;;;;;;6.28;1.33;;;12.70;99.90;;;;;;5062185;28;20036;-56
2023/10/04 01:48:23;;;;;;;2.72;1.02;;;12.70;99.90;;;;;;5063215;28;20166;-58
2023/10/04 01:50:51;;;;;;;5.60;0.73;;;12.70;99.90;;;;;;5064638;28;20040;-57
2023/10/04 01:53:24;;;;;;;6.05;1.15;;;12.70;99.90;;;;;;5064931;28;20488;-61
2023/10/04 01:55:51;;;;;;;6.75;1.67;;;12.70;99.90;;;;;;5068709;28;20395;-58
2023/10/04 01:58:23;;;;;;;4.57;1.30;;;12.70;99.90;;;;;;5066983;28;20082;-58
2023/10/04 02:00:51;;;;;;;8.38;1.08;;;12.70;99.90;;;;;;5060624;28;20041;-57
2023/10/04 02:03:17;;;;;;;7.75;1.70;;;12.70;99.90;;;;;;5068265;28;20040;-59
2023/10/04 02:05:43;;;;;;;3.05;0.70;;;12.70;99.90;;;;;;5065547;28;20047;-57
2023/10/04 02:08:09;;;;;;;9.68;2.00;;;12.70;99.90;;;;;;5068076;28;20036;-56
2023/10/04 02:10:38;;;;;;;11.50;1.77;;;12.70;99.90;;;;;;5069680;28;20114;-59
2023/10/04 02:13:07;;;;;;;7.25;2.28;;;12.70;99.90;;;;;;5069740;28;20534;-58
2023/10/04 02:15:35;;;;;;;6.28;1.20;;;12.70;99.90;;;;;;5066929;28;20036;-56
2023/10/04 02:18:01;;;;;;;10.00;1.40;;;12.70;99.90;;;;;;5064175;28;20036;-56
2023/10/04 02:20:33;;;;;;;6.93;1.05;;;12.70;99.90;;;;;;5069186;28;20190;-57
2023/10/04 02:23:00;;;;;;;6.22;1.30;;;12.70;99.90;;;;;;5064496;28;20070;-58
2023/10/04 02:25:26;;;;;;;5.30;1.10;;;12.70;99.90;;;;;;5064923;28;20037;-59
2023/10/04 02:27:52;;;;;;;12.43;1.55;;;12.70;99.90;;;;;;5068213;28;20040;-58
2023/10/04 02:30:23;;;;;;;7.82;1.48;;;12.70;99.90;;;;;;5064996;28;20043;-57
2023/10/04 02:32:50;;;;;;;8.85;1.40;;;12.70;99.90;;;;;;5064572;28;20048;-57
2023/10/04 02:35:50;;;;;;;5.78;1.38;;;12.70;99.90;;;;;;5068782;28;20399;-57
2023/10/04 02:38:23;;;;;;;22.52;1.35;;;12.70;99.90;;;;;;5064486;28;20037;-55
2023/10/04 02:40:53;;;;;;;7.10;1.10;;;12.70;99.90;;;;;;5063274;28;20062;-56
2023/10/04 02:43:28;;;;;;;6.60;1.35;;;12.70;99.90;;;;;;5055966;28;20500;-57
2023/10/04 02:45:54;;;;;;;9.75;1.40;;;12.70;99.90;;;;;;5058817;28;20621;-59
2023/10/04 02:48:20;;;;;;;6.30;1.60;;;12.60;99.90;;;;;;5061103;28;20049;-59
2023/10/04 02:50:46;;;;;;;;;;;12.60;99.90;;;;;;5064568;28;20118;-57
2023/10/04 02:53:12;;;;;;;7.28;1.50;;;12.50;99.90;;;;;;5063899;28;19978;-56
2023/10/04 02:55:39;;;;;;;9.98;1.50;;;12.50;99.90;;;;;;5068015;28;20111;-58
2023/10/04 02:58:06;;;;;;;7.97;1.42;;;12.50;99.90;;;;;;5066069;28;20437;-57
2023/10/04 03:00:33;;;;;;;7.88;1.50;;;12.40;99.90;;;;;;5062646;28;20044;-58
2023/10/04 03:02:59;;;;;;;10.55;2.03;;;12.40;99.90;;;;;;5065041;28;20040;-56
2023/10/04 03:05:28;;;;;;;9.45;1.98;;;12.40;99.90;;;;;;5065058;28;20052;-57
2023/10/04 03:07:54;;;;;;;7.32;1.70;;;12.30;99.90;;;;;;5065631;28;20418;-57
2023/10/04 03:10:23;;;;;;;6.47;2.25;;;12.30;99.90;;;;;;5068478;28;20037;-57
2023/10/04 03:12:53;;;;;;;11.93;1.85;;;12.30;99.90;;;;;;5065788;28;20024;-57
2023/10/04 03:15:23;;;;;;;9.50;2.00;;;12.30;99.90;;;;;;5066933;28;20124;-56
2023/10/04 03:17:52;;;;;;;9.20;1.65;;;12.30;99.90;;;;;;5063392;28;20111;-54
2023/10/04 03:20:23;;;;;;;6.82;1.95;;;12.20;99.90;;;;;;5062709;28;20419;-57
2023/10/04 03:22:50;;;;;;;13.55;2.40;;;12.20;99.90;;;;;;5066298;28;20055;-58
2023/10/04 03:25:17;;;;;;;4.72;1.67;;;12.20;99.90;;;;;;5066216;28;20055;-58
2023/10/04 03:27:44;;;;;;;12.60;1.70;;;12.20;99.90;;;;;;5062200;28;20127;-57
2023/10/04 03:30:14;;;;;;;7.32;2.08;;;12.20;99.90;;;;;;5060859;28;20040;-57
2023/10/04 03:32:56;;;;;;;5.28;1.30;;;12.20;99.90;;;;;;5067395;28;20131;-58
2023/10/04 03:35:23;;;;;;;5.35;1.45;;;12.20;99.90;;;;;;5067715;28;20494;-56
2023/10/04 03:37:54;;;;;;;14.80;2.33;;;12.20;99.90;;;;;;5068356;28;20533;-58
2023/10/04 03:40:22;;;;;;;9.60;1.73;;;12.20;99.90;;;;;;5065298;28;20040;-55
2023/10/04 03:42:48;;;;;;;4.22;1.38;;;12.20;99.90;;;;;;5065236;28;20070;-55
2023/10/04 03:45:17;;;;;;;9.93;1.73;;;12.20;99.90;;;;;;5066421;28;20063;-58
2023/10/04 03:47:50;;;;;;;11.15;1.50;;;12.20;99.90;;;;;;5066655;28;20046;-58
2023/10/04 03:50:17;;;;;;;10.35;2.15;;;12.20;99.90;;;;;;5055651;28;20045;-58
2023/10/04 03:52:43;;;;;;;14.57;1.88;;;12.20;99.90;;;;;;5065244;28;20040;-57
2023/10/04 03:55:10;;;;;;;;;;;12.20;99.90;;;;;;5065805;28;20032;-56
2023/10/04 03:57:40;;;;;;;5.47;1.95;;;12.20;99.90;;;;;;5065973;28;20011;-58
2023/10/04 04:00:09;;;;;;;8.57;1.42;;;12.20;99.90;;;;;;5064111;28;20407;-55
2023/10/04 04:02:34;;;;;;;10.38;1.92;;;12.20;99.90;;;;;;5059122;28;20403;-57
2023/10/04 04:05:00;;;;;;;8.40;2.10;;;12.20;99.90;;;;;;5065247;28;20037;-54
2023/10/04 04:07:26;;;;;;;9.87;1.60;;;12.20;99.90;;;;;;5067806;28;20370;-57
2023/10/04 04:09:52;;;;;;;10.48;2.10;;;12.20;99.90;;;;;;5059972;28;20295;-57
2023/10/04 04:12:18;;;;;;;5.43;1.90;;;12.20;99.90;;;;;;5059718;28;20101;-56
2023/10/04 04:14:44;;;;;;;9.07;1.73;;;12.20;99.90;;;;;;5063188;28;20064;-58
2023/10/04 04:17:09;;;;;;;7.90;1.45;;;12.20;99.90;;;;;;5063960;28;20044;-55
2023/10/04 04:19:35;;;;;;;14.18;1.63;;;12.20;99.90;;;;;;5064783;28;20668;-57
2023/10/04 04:22:01;;;;;;;8.82;1.48;;;12.20;99.90;;;;;;5061694;28;20033;-58
2023/10/04 04:24:27;;;;;;;12.05;1.48;;;12.30;99.90;;;;;;5061893;28;20118;-57
2023/10/04 04:26:58;;;;;;;12.85;2.03;;;12.30;99.90;;;;;;5060784;28;20087;-54
2023/10/04 04:29:24;;;;;;;8.63;1.33;;;12.30;99.90;;;;;;5062489;28;20040;-57
2023/10/04 04:31:52;;;;;;;7.38;1.70;;;12.30;99.90;;;;;;5059333;28;20435;-57
2023/10/04 04:34:18;;;;;;;12.57;2.22;;;12.30;99.90;;;;;;5060154;28;20622;-58
2023/10/04 04:36:46;;;;;;;;;;;12.40;99.90;;;;;;5061315;28;20032;-57
2023/10/04 04:39:16;;;;;;;8.60;1.70;;;12.40;99.90;;;;;;5063834;28;19917;-57
2023/10/04 04:41:42;;;;;;;11.02;2.30;;;12.50;99.90;;;;;;5058814;28;20041;-57
2023/10/04 04:44:08;;;;;;;8.82;2.10;;;12.50;99.90;;;;;;5060878;28;20158;-57
2023/10/04 04:46:35;;;;;;;11.32;1.77;;;12.50;99.90;;;;;;5060763;28;20136;-55
2023/10/04 04:49:01;;;;;;;11.95;2.22;;;12.50;99.90;;;;;;5066013;28;20105;-57
2023/10/04 04:51:27;;;;;;;8.57;1.85;;;12.50;99.90;;;;;;5066420;28;20399;-53
2023/10/04 04:53:53;;;;;;;6.30;1.48;;;12.50;99.90;;;;;;5047686;28;20450;-52
2023/10/04 04:56:21;;;;;;;7.15;1.55;;;12.50;99.90;;;;;;5053560;28;20043;-56
2023/10/04 04:58:47;;;;;;;16.10;2.65;;;12.50;99.90;;;;;;5068054;28;20037;-56
2023/10/04 05:01:14;;;;;;;10.50;1.50;;;12.50;99.90;;;;;;5054492;28;20120;-56
2023/10/04 05:03:45;;;;;;;;;;;12.50;99.90;;;;;;5069721;28;20410;-56
2023/10/04 05:06:20;;;;;;;7.13;1.83;;;12.50;99.90;;;;;;5065543;28;20422;-56
2023/10/04 05:08:46;;;;;;;13.40;1.80;;;12.50;99.90;;;;;;5064231;28;20033;-56
2023/10/04 05:11:11;;;;;;;8.93;2.22;;;12.60;99.90;;;;;;5058275;28;20148;-56
2023/10/04 05:13:37;;;;;;;11.57;2.10;;;12.50;99.90;;;;;;5062454;28;20410;-56
2023/10/04 05:16:05;;;;;;;9.30;1.90;;;12.50;99.90;;;;;;5064640;28;20048;-56
2023/10/04 05:18:31;;;;;;;11.65;2.05;;;12.50;99.90;;;;;;5065252;28;20032;-57
2023/10/04 05:20:57;;;;;;;7.50;2.03;;;12.50;99.90;;;;;;5069999;28;20040;-57
2023/10/04 05:23:26;;;;;;;10.02;2.17;;;12.50;99.90;;;;;;5071820;28;20075;-57
2023/10/04 05:25:53;;;;;;;9.48;2.00;;;12.50;99.90;;;;;;5070201;28;20491;-56
2023/10/04 05:28:19;;;;;;;;;;;12.50;99.90;;;;;;5072335;28;20551;-57
2023/10/04 05:30:46;;;;;;;6.45;1.67;;;12.40;99.90;;;;;;5070598;28;20011;-56
2023/10/04 05:33:13;;;;;;;13.18;2.10;;;12.40;99.90;;;;;;5055503;28;20040;-57
2023/10/04 05:35:41;;;;;;;6.30;1.77;;;12.40;99.90;;;;;;5059897;28;20051;-57
2023/10/04 05:38:07;;;;;;;13.65;1.85;;;12.40;99.90;;;;;;5061044;28;20439;-57
2023/10/04 05:40:38;;;;;;;13.70;2.50;;;12.30;99.90;;;;;;5065549;28;20494;-57
2023/10/04 05:43:05;;;;;;;13.63;3.08;;;12.30;99.90;;;;;;5065465;28;20113;-57
2023/10/04 05:45:31;;;;;;;13.93;2.08;;;12.30;99.90;;;;;;5070961;28;20523;-57
2023/10/04 05:47:59;;;;;;;;;;;12.30;99.90;;;;;;5069885;28;20377;-57
2023/10/04 05:50:25;;;;;;;;;;;12.30;99.90;;;;;;5069851;28;20015;-57
2023/10/04 05:52:52;;;;;;;11.15;2.22;;;12.30;99.90;;;;;;5067259;28;19921;-57
2023/10/04 05:55:19;;;;;;;11.15;1.92;;;12.30;99.90;;;;;;5071129;28;20462;-57
2023/10/04 05:57:46;;;;;;;10.23;2.10;;;12.30;99.90;;;;;;5065223;28;20036;-58
2023/10/04 06:03:00;;;;;;;11.60;2.20;;;12.30;99.90;;;;;;5049145;28;20496;-58
2023/10/04 06:05:28;;;;;;;15.40;2.20;;;12.30;99.90;;;;;;5050612;28;20033;-58
2023/10/04 06:07:55;;;;;;;12.60;2.58;;;12.30;99.90;;;;;;5053059;28;20419;-57
2023/10/04 06:10:23;;;;;;;11.48;2.75;;;12.40;99.90;;;;;;5053200;28;20033;-58
2023/10/04 06:12:50;;;;;;;12.73;2.55;;;12.40;99.90;;;;;;5056474;28;20028;-58
2023/10/04 06:15:17;;;;;;;14.68;1.95;;;12.40;99.90;;;;;;5056969;28;20071;-58
2023/10/04 06:17:45;;;;;;;11.60;2.20;;;12.50;99.90;;;;;;5053305;28;20043;-58
2023/10/04 06:20:36;;;;;;;7.95;2.63;;;12.50;99.90;;;;;;5061294;28;20045;-57
2023/10/04 06:23:06;;;;;;;9.15;2.10;;;12.60;99.90;;;;;;5066503;28;20416;-58
2023/10/04 06:25:44;;;;;;;14.13;2.45;;;12.70;99.90;;;;;;5059568;28;20059;-58
2023/10/04 06:28:10;;;;;;;10.60;2.15;;;12.70;99.90;;;;;;5069710;28;20070;-58
2023/10/04 06:30:37;;;;;;;12.27;2.03;;;12.80;99.90;;;;;;5063163;28;20519;-58
2023/10/04 06:33:05;;;;;;;11.90;2.35;;;12.90;99.90;;;;;;5060590;28;20110;-58
2023/10/04 06:35:32;;;;;;;10.50;2.13;;;13.00;99.90;;;;;;5061259;28;20059;-57
2023/10/04 06:38:08;;;;;;;10.98;1.98;;;13.00;99.90;;;;;;5065463;28;20040;-58
2023/10/04 06:40:35;;;;;;;12.02;2.47;;;13.00;99.90;;;;;;5064660;28;20631;-58
2023/10/04 06:43:06;;;;;;;12.75;2.38;;;13.00;99.90;;;;;;5065190;28;20446;-58
2023/10/04 06:45:34;;;;;;;12.90;2.75;;;13.00;99.90;;;;;;5070689;28;20134;-58
2023/10/04 06:48:00;;;;;;;13.68;2.05;;;13.00;99.90;;;;;;5058068;28;20043;-57
2023/10/04 06:50:28;;;;;;;12.10;2.17;;;13.00;99.90;;;;;;5062567;28;20128;-57
2023/10/04 06:52:57;;;;;;;11.82;2.28;;;13.10;99.90;;;;;;5045008;28;20052;-55
2023/10/04 06:55:23;;;;;;;14.75;2.58;;;13.20;99.90;;;;;;5058271;28;20177;-56
2023/10/04 06:57:49;;;;;;;11.35;3.10;;;13.20;99.90;;;;;;5060155;28;20094;-55
2023/10/04 07:00:21;;;;;;;9.70;1.75;;;13.30;99.90;;;;;;5048664;28;20076;-54
2023/10/04 07:02:47;;;;;;;14.43;3.03;;;13.30;99.90;;;;;;5057425;28;20083;-58
2023/10/04 07:05:19;;;;;;;13.27;2.17;;;13.30;99.90;;;;;;5042968;28;20044;-55
2023/10/04 07:07:49;;;;;;;10.70;2.25;;;13.30;99.90;;;;;;5054306;28;20037;-58
2023/10/04 07:10:15;;;;;;;10.65;1.77;;;13.40;99.90;;;;;;5042365;28;20037;-57
2023/10/04 07:12:45;;;;;;;9.63;2.50;;;13.50;99.90;;;;;;5057025;28;20035;-55
2023/10/04 07:15:15;;;;;;;21.52;2.75;;;13.60;99.90;;;;;;5046167;28;20043;-57
2023/10/04 07:17:41;;;;;;;6.20;1.92;;;13.70;99.90;;;;;;5050566;28;20056;-58
2023/10/04 07:20:15;;;;;;;10.50;1.60;;;13.70;99.90;;;;;;5052490;28;20079;-55
2023/10/04 07:22:58;;;;;;;9.98;2.20;;;13.80;99.90;;;;;;5036614;28;20075;-57
2023/10/04 07:25:28;;;;;;;11.50;1.90;;;13.80;99.90;;;;;;5044956;28;20041;-52
2023/10/04 07:27:56;;;;;;;11.63;2.08;;;13.80;99.90;;;;;;5049149;28;20443;-56
2023/10/04 07:30:24;;;;;;;7.95;2.42;;;13.90;99.90;;;;;;5040565;28;20435;-56
2023/10/04 07:32:49;;;;;;;10.65;2.35;;;13.90;99.90;;;;;;5042899;28;20039;-56
2023/10/04 07:35:19;;;;;;;6.80;1.92;;;14.00;99.90;;;;;;5044568;28;20033;-55
2023/10/04 07:37:45;;;;;;;11.27;2.35;;;14.00;99.90;;;;;;5047827;28;20097;-55
2023/10/04 07:40:16;;;;;;;8.38;2.03;;;13.90;99.90;;;;;;5038372;28;20048;-56
2023/10/04 07:42:48;;;;;;;10.65;2.53;;;13.90;99.90;;;;;;5044348;28;20083;-58
2023/10/04 07:45:16;;;;;;;7.25;2.28;;;14.00;99.90;;;;;;5035921;28;20033;-58
2023/10/04 07:47:42;;;;;;;12.30;3.05;;;14.10;99.90;;;;;;5039872;28;20169;-56
2023/10/04 07:50:10;;;;;;;11.32;2.40;;;14.10;99.90;;;;;;5037303;28;20792;-54
2023/10/04 07:52:37;;;;;;;10.98;3.05;;;14.30;99.90;;;;;;5045799;28;20146;-56
2023/10/04 07:55:19;;;;;;;12.00;3.03;;;14.40;99.90;;;;;;5040198;28;20795;-57
2023/10/04 07:57:46;;;;;;;8.98;2.20;;;14.50;99.90;;;;;;5042994;28;20139;-57
2023/10/04 08:00:14;;;;;;;12.25;2.67;;;14.60;99.90;;;;;;5043754;28;20075;-59
2023/10/04 08:02:49;;;;;;;11.02;2.75;;;14.60;99.90;;;;;;5043852;28;20475;-59
2023/10/04 08:05:36;;;;;;;12.60;3.40;;;14.70;99.90;;;;;;5044639;28;20075;-58
2023/10/04 08:08:03;;;;;;;18.50;2.50;;;14.80;99.90;;;;;;5045306;28;20068;-57
2023/10/04 08:10:32;;;;;;;11.45;2.22;;;14.80;99.90;;;;;;5046076;28;20087;-58
2023/10/04 08:13:00;;;;;;;11.07;2.97;;;14.80;99.90;;;;;;5045183;28;20503;-57
2023/10/04 08:15:28;;;;;;;7.95;3.00;;;14.90;99.90;;;;;;5045485;28;20430;-56
2023/10/04 08:17:55;;;;;;;12.48;3.00;;;15.00;99.90;;;;;;5051913;28;20183;-56
2023/10/04 08:20:22;;;;;;;10.00;3.20;;;15.10;99.90;;;;;;5046045;28;20037;-57
2023/10/04 08:22:48;;;;;;;19.35;3.78;;;15.20;99.90;;;;;;5047252;28;20113;-56
2023/10/04 08:25:23;;;;;;;11.60;2.95;;;15.30;99.90;;;;;;5046636;28;20037;-56
2023/10/04 08:27:49;;;;;;;10.40;2.33;;;15.40;99.90;;;;;;5049459;28;20041;-57
2023/10/04 08:30:17;;;;;;;9.68;2.53;;;15.50;99.90;;;;;;5041910;28;20464;-56
2023/10/04 08:32:44;;;;;;;8.95;2.42;;;15.50;99.90;;;;;;5050354;28;20139;-53
2023/10/04 08:35:21;;;;;;;13.90;3.60;;;15.60;99.90;;;;;;5047050;28;20040;-54
2023/10/04 08:37:48;;;;;;;11.70;2.53;;;15.70;99.90;;;;;;5043622;28;20045;-55
2023/10/04 08:40:18;;;;;;;9.80;2.50;;;15.80;99.90;;;;;;5039341;28;20403;-52
2023/10/04 08:42:45;;;;;;;9.93;2.83;;;15.90;99.90;;;;;;5048687;28;20044;-54
2023/10/04 08:45:10;;;;;;;8.50;2.35;;;16.00;99.90;;;;;;5045362;28;20248;-58
2023/10/04 08:47:38;;;;;;;10.90;3.15;;;16.00;99.90;;;;;;5055308;28;20561;-57
2023/10/04 08:50:11;;;;;;;13.05;2.50;;;16.00;99.90;;;;;;5050051;28;20092;-56
2023/10/04 08:52:41;;;;;;;14.07;2.90;;;16.10;99.90;;;;;;5050590;28;20152;-56
2023/10/04 08:55:13;;;;;;;10.30;2.80;;;16.20;99.90;;;;;;5049310;28;20048;-55
2023/10/04 08:57:40;;;;;;;12.63;3.17;;;16.20;99.90;;;;;;5049727;28;20047;-57
2023/10/04 09:00:13;;;;;;;7.68;2.28;;;16.30;99.90;;;;;;5046783;28;20037;-57
2023/10/04 09:02:44;;;;;;;10.63;2.67;;;16.40;99.90;;;;;;5050585;28;20076;-57
2023/10/04 09:05:13;;;;;;;11.77;3.03;;;16.40;99.90;;;;;;5046571;28;20059;-56
2023/10/04 09:07:39;;;;;;;8.68;2.33;;;16.50;99.90;;;;;;5050196;28;20078;-57
2023/10/04 09:10:06;;;;;;;13.55;3.10;;;16.50;99.90;;;;;;5046687;28;20406;-58
2023/10/04 09:12:32;;;;;;;13.45;2.92;;;16.50;99.90;;;;;;5049639;28;20048;-56
2023/10/04 09:14:58;;;;;;;16.75;2.92;;;16.60;99.90;;;;;;5051734;28;20510;-56
2023/10/04 09:17:25;;;;;;;10.85;3.15;;;16.70;99.90;;;;;;5047668;28;20041;-57
2023/10/04 09:19:52;;;;;;;10.68;3.17;;;16.70;99.90;;;;;;5054150;28;20383;-56
2023/10/04 09:22:29;;;;;;;12.70;3.25;;;16.80;99.90;;;;;;5047210;28;20044;-58
2023/10/04 09:24:56;;;;;;;9.95;3.17;;;16.80;99.90;;;;;;5051953;28;20059;-56
2023/10/04 09:27:22;;;;;;;15.82;3.78;;;16.90;99.90;;;;;;5050520;28;20080;-54
2023/10/04 09:29:49;;;;;;;8.48;2.17;;;17.00;99.90;;;;;;5051607;28;20075;-60
2023/10/04 09:32:33;;;;;;;;;;;17.00;99.90;;;;;;5051418;28;20305;-56
2023/10/04 09:34:59;;;;;;;13.52;3.05;;;17.00;99.90;;;;;;5051278;28;20151;-58
2023/10/04 09:37:24;;;;;;;14.13;2.55;;;17.10;99.90;;;;;;5051783;28;20033;-56
2023/10/04 09:40:05;;;;;;;9.43;2.70;;;17.10;99.90;;;;;;5050446;28;20044;-56
2023/10/04 09:42:43;;;;;;;10.60;2.70;;;17.20;99.90;;;;;;5052409;28;20124;-55
2023/10/04 09:45:09;;;;;;;9.95;3.42;;;17.30;99.90;;;;;;5050152;28;20168;-57
2023/10/04 09:47:38;;;;;;;11.00;2.90;;;17.30;99.90;;;;;;5057760;28;20728;-57
2023/10/04 09:50:12;;;;;;;11.25;2.75;;;17.20;99.90;;;;;;5049953;28;20049;-57
2023/10/04 09:52:38;;;;;;;5.10;2.60;;;17.30;99.90;;;;;;5050664;28;20044;-55
2023/10/04 09:55:08;;;;;;;8.77;2.17;;;17.30;99.90;;;;;;5049722;28;20128;-57
2023/10/04 09:57:36;;;;;;;12.52;3.58;;;17.40;99.90;;;;;;5053685;28;20063;-56
2023/10/04 10:00:06;;;;;;;10.75;2.67;;;17.40;99.90;;;;;;5049780;28;20630;-58
2023/10/04 10:02:36;;;;;;;13.82;3.25;;;17.50;99.90;;;;;;5053895;28;20049;-57
2023/10/04 10:05:05;;;;;;;14.93;3.72;;;17.50;99.90;;;;;;5051378;28;20068;-56
2023/10/04 10:07:34;;;;;;;15.05;2.70;;;17.50;99.90;;;;;;5051322;28;20107;-54
2023/10/04 10:10:12;;;;;;;9.85;2.90;;;17.50;99.90;;;;;;5050797;28;20137;-56
2023/10/04 10:12:39;;;;;;;15.15;2.90;;;17.50;99.90;;;;;;5049181;28;20044;-57
2023/10/04 10:15:05;;;;;;;8.27;3.72;;;17.50;99.90;;;;;;5047733;28;20075;-56
2023/10/04 10:17:33;;;;;;;10.73;3.10;;;17.60;99.90;;;;;;5053140;28;20073;-57
2023/10/04 10:19:59;;;;;;;12.20;3.05;;;17.60;99.90;;;;;;5051483;28;20054;-56
2023/10/04 10:22:25;;;;;;;;;;;17.50;99.90;;;;;;5053279;28;20040;-55
2023/10/04 10:24:56;;;;;;;10.18;2.80;;;17.60;99.90;;;;;;5051304;28;19924;-55
2023/10/04 10:27:28;;;;;;;10.52;2.75;;;17.60;99.90;;;;;;5051467;28;20524;-56
2023/10/04 10:30:01;;;;;;;12.68;3.20;;;17.60;99.90;;;;;;5048643;28;20042;-57
2023/10/04 10:32:27;;;;;;;9.73;3.05;;;17.50;99.90;;;;;;5045606;28;20104;-58
2023/10/04 10:35:07;;;;;;;19.17;3.60;;;17.40;99.90;;;;;;5050146;28;20094;-59
2023/10/04 10:37:38;;;;;;;16.00;3.53;;;17.40;99.90;;;;;;5050588;28;20296;-57
2023/10/04 10:40:24;;;;;;;11.30;2.95;;;17.30;99.90;;;;;;5046476;28;20503;-57
2023/10/04 10:43:09;;;;;;;9.43;2.85;;;17.30;99.90;;;;;;5047472;28;20040;-56
2023/10/04 10:45:35;;;;;;;11.02;3.70;;;17.40;99.90;;;;;;5048768;28;20319;-56
2023/10/04 10:48:06;;;;;;;11.20;2.97;;;17.30;99.90;;;;;;5046686;28;20037;-55
2023/10/04 10:50:39;;;;;;;12.65;2.95;;;17.40;99.90;;;;;;5051476;28;20468;-57
2023/10/04 10:53:08;;;;;;;17.83;3.13;;;17.40;99.90;;;;;;5047719;28;20063;-56
2023/10/04 10:55:35;;;;;;;9.88;3.03;;;17.30;99.90;;;;;;5051027;28;20032;-57
2023/10/04 10:58:01;;;;;;;13.48;4.28;;;17.30;99.90;;;;;;5046305;28;20036;-57
2023/10/04 11:00:32;;;;;;;;;;;17.20;99.90;;;;;;5050379;28;20037;-57
2023/10/04 11:02:58;;;;;;;11.18;3.28;;;17.20;99.90;;;;;;5046342;28;19989;-55
2023/10/04 11:05:25;;;;;;;11.05;3.75;;;17.20;99.90;;;;;;5046492;28;20048;-56
2023/10/04 11:07:55;;;;;;;10.93;4.03;;;17.30;99.90;;;;;;5049854;28;20048;-55
2023/10/04 11:10:25;;;;;;;14.05;3.78;;;17.30;99.90;;;;;;5047879;28;20484;-57
2023/10/04 11:12:54;;;;;;;9.88;2.97;;;17.30;99.90;;;;;;5046762;28;20533;-57
2023/10/04 11:15:23;;;;;;;10.88;3.70;;;17.20;99.90;;;;;;5041110;28;20461;-56
2023/10/04 11:17:50;;;;;;;13.55;3.72;;;17.10;99.90;;;;;;5036627;28;20468;-55
2023/10/04 11:20:20;;;;;;;12.73;3.35;;;17.10;99.90;;;;;;5048075;28;20411;-56
2023/10/04 11:22:48;;;;;;;17.67;3.60;;;17.00;99.90;;;;;;5051667;28;20032;-56
2023/10/04 11:25:14;;;;;;;14.32;3.28;;;17.00;99.90;;;;;;5049268;28;20052;-55
2023/10/04 11:27:43;;;;;;;17.17;3.15;;;17.00;99.90;;;;;;5051265;28;20044;-54
2023/10/04 11:30:11;;;;;;;9.52;3.50;;;17.00;99.90;;;;;;5049617;28;20407;-55
2023/10/04 11:32:46;;;;;;;52.58;6.75;;;17.00;99.90;;;;;;5049513;28;20036;-55
2023/10/04 11:35:15;;;;;;;14.88;4.15;;;17.00;99.90;;;;;;5047217;28;20171;-54
2023/10/04 11:37:43;;;;;;;32.65;5.65;;;16.90;99.90;;;;;;5050743;28;20032;-54
2023/10/04 11:40:10;;;;;;;27.27;5.53;;;16.90;99.90;;;;;;5048389;28;20447;-56
2023/10/04 11:42:36;;;;;;;18.48;3.65;;;16.90;99.90;;;;;;5051629;28;20529;-55
2023/10/04 11:45:23;;;;;;;12.82;3.50;;;16.90;99.90;;;;;;5039665;28;20041;-56
2023/10/04 11:48:03;;;;;;;19.33;3.33;;;16.90;99.90;;;;;;5045594;28;20563;-56
2023/10/04 11:50:48;;;;;;;19.58;4.45;;;17.00;99.90;;;;;;5048768;28;20075;-55
2023/10/04 11:53:32;;;;;;;12.77;2.72;;;16.90;99.90;;;;;;5049433;28;20091;-57
2023/10/04 11:56:06;;;;;;;11.20;3.72;;;17.00;99.90;;;;;;5048851;28;20036;-55
2023/10/04 11:58:45;;;;;;;13.23;3.92;;;16.90;99.90;;;;;;5043978;28;20122;-57
2023/10/04 12:01:14;;;;;;;8.88;3.33;;;16.90;99.90;;;;;;5041671;28;20458;-57
2023/10/04 12:03:40;;;;;;;15.02;3.45;;;17.00;99.90;;;;;;5045292;28;20036;-56
2023/10/04 12:06:06;;;;;;;;;;;17.00;99.90;;;;;;5046545;28;20094;-56
2023/10/04 12:08:32;;;;;;;9.32;3.13;;;16.90;99.90;;;;;;5042515;28;20027;-57
2023/10/04 12:11:01;;;;;;;9.07;3.55;;;16.90;99.90;;;;;;5044063;28;20139;-56
2023/10/04 12:13:27;;;;;;;13.60;3.90;;;16.80;99.90;;;;;;5046344;28;20518;-56
2023/10/04 12:15:53;;;;;;;12.10;3.40;;;16.80;99.90;;;;;;5049012;28;20025;-56
2023/10/04 12:18:18;;;;;;;11.73;3.28;;;16.70;99.90;;;;;;5046021;28;20049;-57
2023/10/04 12:20:44;;;;;;;10.32;3.55;;;16.70;99.90;;;;;;5045978;28;20483;-57
2023/10/04 12:23:11;;;;;;;7.80;3.05;;;16.70;99.90;;;;;;5047711;28;20534;-55
2023/10/04 12:25:37;;;;;;;;;;;16.70;99.90;;;;;;5051924;28;20036;-58
2023/10/04 12:28:04;;;;;;;11.68;3.10;;;16.70;99.90;;;;;;5047583;28;19925;-57
2023/10/04 12:30:31;;;;;;;16.10;3.80;;;16.80;99.90;;;;;;5049918;28;20037;-55
2023/10/04 12:32:57;;;;;;;12.10;3.00;;;16.90;99.90;;;;;;5042743;28;20036;-56
2023/10/04 12:35:23;;;;;;;11.48;3.40;;;17.00;99.90;;;;;;5045814;28;20508;-56
2023/10/04 12:37:49;;;;;;;15.60;3.75;;;17.10;99.90;;;;;;5046198;28;20081;-56
2023/10/04 12:40:23;;;;;;;9.23;2.63;;;17.10;99.90;;;;;;5045102;28;20095;-57
2023/10/04 12:42:51;;;;;;;12.07;3.17;;;17.20;99.90;;;;;;5047102;28;20040;-56
2023/10/04 12:45:19;;;;;;;15.98;3.08;;;17.20;99.90;;;;;;5043860;28;20081;-56
2023/10/04 12:47:46;;;;;;;11.25;3.13;;;17.20;99.90;;;;;;5045801;28;20067;-59
2023/10/04 12:50:15;;;;;;;8.57;2.25;;;17.30;99.90;;;;;;5044609;28;20398;-58
2023/10/04 12:52:45;;;;;;;12.27;3.28;;;17.30;99.90;;;;;;5043338;28;20024;-58
2023/10/04 12:55:11;;;;;;;11.35;2.97;;;17.30;99.90;;;;;;5042578;28;20521;-58
2023/10/04 12:57:42;;;;;;;9.68;3.35;;;17.30;99.90;;;;;;5041594;28;20615;-57